• Join FlightAware (Why Join?)
  • Login
  • US Flag 
04:09AM EST


 

Airport Tracker/Info


-or-


 

Live Flight TrackerFlight Track Log ✈ SKW6377 ✈ 27-Apr-2013 ✈ KDEN - KCPR

Flight Track Log - Related Links

Times and Time Zones

All times are in EDT time to prevent confusion due to time zone crossing. See the SKW6377 flight status page for this flight to view local times or setup timezone preferences in your user account.

Time Position Orientation Groundspeed Altitude Reporting Facility
EDT Latitude Longitude Course Direction KTS MPH feet Rate Location/Type
01:23PM 39.9186 -104.6944 348° North 180 207 7,300  Level Denver Center
01:24PM 39.9839 -104.6767 12° North 242 278 9,200 2,220 Climbing Denver Center
01:25PM 40.1857 -104.7774 347° North  Level FlightAware Approximate
01:25PM 40.0675 -104.6661 North 282 325 12,000  Level Denver Center
01:26PM 40.2985 -104.8112 347° North  Level FlightAware Approximate
01:26PM 40.1467 -104.6828 351° North 289 333 14,600  Level Denver Center
01:27PM 40.4107 -104.8480 346° North  Level FlightAware Approximate
01:27PM 40.2375 -104.7075 348° North 312 359 16,300  Level Denver Center
01:28PM 40.5229 -104.8851 348° North  Level FlightAware Approximate
01:28PM 40.3300 -104.7317 349° North 336 387 17,800  Level Denver Center
01:29PM 40.4367 -104.7597 349° North 363 418 19,300 1,380 Climbing Denver Center
01:30PM 40.5392 -104.7864 349° North 373 429 20,700 1,200 Climbing Denver Center
01:31PM 40.6419 -104.8144 348° North 385 443 21,800 1,140 Climbing Denver Center
01:32PM 40.7564 -104.8492 347° North 381 438 23,100 1,140 Climbing Denver Center
01:33PM 40.8625 -104.8922 343° North 400 460 24,200 1,020 Climbing Denver Center
01:34PM 40.9608 -104.9625 332° Northwest 399 459 25,300 900 Climbing Denver Center
01:35PM 41.0600 -105.0344 331° Northwest 403 464 26,100 720 Climbing Denver Center
01:36PM 41.1717 -105.1181 331° Northwest 412 474 26,900 720 Climbing Denver Center
01:37PM 41.2672 -105.1911 330° Northwest 414 476 27,700 720 Climbing Denver Center
01:38PM 41.3642 -105.2642 331° Northwest 418 481 28,400 720 Climbing Denver Center
01:39PM 41.4750 -105.3469 331° Northwest 411 473 29,200 600 Climbing Denver Center
01:40PM 41.5722 -105.4225 330° Northwest 418 481 29,700 540 Climbing Denver Center
01:41PM 41.6858 -105.5083 331° Northwest 420 483 30,400 660 Climbing Denver Center
01:42PM 41.7817 -105.5828 330° Northwest 418 481 31,100 720 Climbing Denver Center
01:43PM 41.8958 -105.6711 330° Northwest 421 484 31,900 420 Climbing Denver Center
01:44PM 41.9906 -105.7422 331° Northwest 411 473 32,000 -1,500 Climbing Denver Center
01:45PM 42.1022 -105.8289 330° Northwest 415 478 28,800 -3,120 Descending Denver Center
01:46PM 42.1975 -105.9025 330° Northwest 411 473 25,600 -3,240 Descending Denver Center
01:47PM 42.2969 -105.9800 330° Northwest 428 493 22,200 -3,540 Descending Denver Center
01:49PM 42.4086 -106.0675 330° Northwest 414 476 18,300 -3,480 Descending Denver Center
01:50PM 42.4992 -106.1369 331° Northwest 399 459 15,100 -3,000 Descending Denver Center
01:51PM 42.5975 -106.2142 330° Northwest 383 441 12,100 -2,160 Descending Denver Center
01:52PM 42.6658 -106.2689 330° Northwest 336 387 10,700 -1,020 Descending Denver Center
01:53PM 42.7428 -106.3306 330° Northwest 303 349 10,000 -540 Descending Denver Center
01:54PM 42.8086 -106.3828 330° Northwest 292 336 9,600 -1,080 Descending Denver Center
01:55PM 42.8828 -106.3297 28° Northeast 284 327 7,800 -1,260 Descending Denver Center
01:56PM 42.9367 -106.2686 40° Northeast 273 314 7,100 -540 Descending Denver Center
01:57PM 42.9903 -106.2114 38° Northeast 246 283 6,800 -180 Descending Denver Center
01:58PM 43.0158 -106.2392 322° Northwest 210 242 6,800 -60 Level Denver Center
01:59PM 42.9933 -106.3056 245° Southwest 183 211 6,700  Descending Denver Center
02:00PM 42.9767 -106.3575 246° West 169 194 6,900 180 Climbing Denver Center